sensor_id;sensor_type;location;lat;lon;timestamp;temperature;humidity
26909;DHT22;14477;51.038;4.588;2023-07-20T00:00:55;19.70;70.00
26909;DHT22;14477;51.038;4.588;2023-07-20T00:03:21;19.70;70.20
26909;DHT22;14477;51.038;4.588;2023-07-20T00:05:51;19.70;70.30
26909;DHT22;14477;51.038;4.588;2023-07-20T00:08:17;19.70;70.40
26909;DHT22;14477;51.038;4.588;2023-07-20T00:10:44;19.70;70.60
26909;DHT22;14477;51.038;4.588;2023-07-20T00:13:11;19.70;70.60
26909;DHT22;14477;51.038;4.588;2023-07-20T00:15:37;19.70;70.80
26909;DHT22;14477;51.038;4.588;2023-07-20T00:18:04;19.70;70.70
26909;DHT22;14477;51.038;4.588;2023-07-20T00:20:30;19.70;70.80
26909;DHT22;14477;51.038;4.588;2023-07-20T00:22:55;19.70;70.90
26909;DHT22;14477;51.038;4.588;2023-07-20T00:25:23;19.80;71.00
26909;DHT22;14477;51.038;4.588;2023-07-20T00:27:49;19.80;71.00
26909;DHT22;14477;51.038;4.588;2023-07-20T00:30:15;19.80;71.10
26909;DHT22;14477;51.038;4.588;2023-07-20T00:32:42;19.80;71.10
26909;DHT22;14477;51.038;4.588;2023-07-20T00:35:09;19.80;71.30
26909;DHT22;14477;51.038;4.588;2023-07-20T00:37:35;19.80;71.30
26909;DHT22;14477;51.038;4.588;2023-07-20T00:40:01;19.80;71.30
26909;DHT22;14477;51.038;4.588;2023-07-20T00:42:30;19.80;71.40
26909;DHT22;14477;51.038;4.588;2023-07-20T00:44:55;19.80;71.40
26909;DHT22;14477;51.038;4.588;2023-07-20T00:47:21;19.80;71.40
26909;DHT22;14477;51.038;4.588;2023-07-20T00:49:47;19.80;71.40
26909;DHT22;14477;51.038;4.588;2023-07-20T00:52:14;19.80;71.50
26909;DHT22;14477;51.038;4.588;2023-07-20T00:54:41;19.80;71.60
26909;DHT22;14477;51.038;4.588;2023-07-20T00:57:07;19.80;71.60
26909;DHT22;14477;51.038;4.588;2023-07-20T00:59:37;19.80;71.40
26909;DHT22;14477;51.038;4.588;2023-07-20T01:02:03;19.80;71.80
26909;DHT22;14477;51.038;4.588;2023-07-20T01:04:28;19.80;71.50
26909;DHT22;14477;51.038;4.588;2023-07-20T01:07:34;19.70;71.40
26909;DHT22;14477;51.038;4.588;2023-07-20T01:12:47;19.70;71.90
26909;DHT22;14477;51.038;4.588;2023-07-20T01:15:13;19.70;71.50
26909;DHT22;14477;51.038;4.588;2023-07-20T01:17:39;19.60;71.50
26909;DHT22;14477;51.038;4.588;2023-07-20T01:20:10;19.60;71.60
26909;DHT22;14477;51.038;4.588;2023-07-20T01:28:35;19.50;71.70
26909;DHT22;14477;51.038;4.588;2023-07-20T01:31:34;19.50;73.70
26909;DHT22;14477;51.038;4.588;2023-07-20T01:34:02;19.40;73.30
26909;DHT22;14477;51.038;4.588;2023-07-20T01:36:32;19.40;72.00
26909;DHT22;14477;51.038;4.588;2023-07-20T01:38:59;19.40;72.20
26909;DHT22;14477;51.038;4.588;2023-07-20T01:41:25;19.30;72.20
26909;DHT22;14477;51.038;4.588;2023-07-20T01:43:51;19.30;72.20
26909;DHT22;14477;51.038;4.588;2023-07-20T01:46:16;19.30;72.40
26909;DHT22;14477;51.038;4.588;2023-07-20T01:48:42;19.20;72.40
26909;DHT22;14477;51.038;4.588;2023-07-20T01:51:08;19.20;72.40
26909;DHT22;14477;51.038;4.588;2023-07-20T01:53:34;19.20;72.60
26909;DHT22;14477;51.038;4.588;2023-07-20T01:56:00;19.10;72.60
26909;DHT22;14477;51.038;4.588;2023-07-20T01:58:25;19.10;72.70
26909;DHT22;14477;51.038;4.588;2023-07-20T02:00:51;19.10;72.80
26909;DHT22;14477;51.038;4.588;2023-07-20T02:03:17;19.00;72.70
26909;DHT22;14477;51.038;4.588;2023-07-20T02:05:43;19.00;72.80
26909;DHT22;14477;51.038;4.588;2023-07-20T02:08:09;18.90;72.80
26909;DHT22;14477;51.038;4.588;2023-07-20T02:10:35;18.90;73.00
26909;DHT22;14477;51.038;4.588;2023-07-20T02:13:01;18.90;73.00
26909;DHT22;14477;51.038;4.588;2023-07-20T02:15:27;18.90;73.10
26909;DHT22;14477;51.038;4.588;2023-07-20T02:17:54;18.80;73.10
26909;DHT22;14477;51.038;4.588;2023-07-20T02:20:20;18.80;73.10
26909;DHT22;14477;51.038;4.588;2023-07-20T02:22:46;18.70;73.10
26909;DHT22;14477;51.038;4.588;2023-07-20T02:25:12;18.70;73.10
26909;DHT22;14477;51.038;4.588;2023-07-20T02:27:38;18.70;73.20
26909;DHT22;14477;51.038;4.588;2023-07-20T02:30:05;18.60;73.50
26909;DHT22;14477;51.038;4.588;2023-07-20T02:32:31;18.60;73.40
26909;DHT22;14477;51.038;4.588;2023-07-20T02:34:57;18.60;73.50
26909;DHT22;14477;51.038;4.588;2023-07-20T02:37:24;18.60;73.50
26909;DHT22;14477;51.038;4.588;2023-07-20T02:39:50;18.50;73.60
26909;DHT22;14477;51.038;4.588;2023-07-20T02:42:16;18.50;73.70
26909;DHT22;14477;51.038;4.588;2023-07-20T02:44:41;18.40;73.80
26909;DHT22;14477;51.038;4.588;2023-07-20T02:47:07;18.40;73.90
26909;DHT22;14477;51.038;4.588;2023-07-20T02:49:34;18.40;74.00
26909;DHT22;14477;51.038;4.588;2023-07-20T02:51:59;18.30;74.00
26909;DHT22;14477;51.038;4.588;2023-07-20T02:54:25;18.30;74.00
26909;DHT22;14477;51.038;4.588;2023-07-20T02:56:51;18.30;74.20
26909;DHT22;14477;51.038;4.588;2023-07-20T02:59:16;18.30;74.30
26909;DHT22;14477;51.038;4.588;2023-07-20T03:01:42;18.20;74.20
26909;DHT22;14477;51.038;4.588;2023-07-20T03:04:08;18.20;74.30
26909;DHT22;14477;51.038;4.588;2023-07-20T03:06:36;18.20;75.20
26909;DHT22;14477;51.038;4.588;2023-07-20T03:09:02;18.10;74.40
26909;DHT22;14477;51.038;4.588;2023-07-20T03:11:29;18.10;74.40
26909;DHT22;14477;51.038;4.588;2023-07-20T03:13:54;18.10;74.50
26909;DHT22;14477;51.038;4.588;2023-07-20T03:16:21;18.10;74.60
26909;DHT22;14477;51.038;4.588;2023-07-20T03:18:47;18.00;74.70
26909;DHT22;14477;51.038;4.588;2023-07-20T03:21:12;18.00;74.90
26909;DHT22;14477;51.038;4.588;2023-07-20T03:23:39;18.00;75.10
26909;DHT22;14477;51.038;4.588;2023-07-20T03:26:05;18.00;75.40
26909;DHT22;14477;51.038;4.588;2023-07-20T03:28:34;18.00;75.40
26909;DHT22;14477;51.038;4.588;2023-07-20T03:30:59;18.00;75.50
26909;DHT22;14477;51.038;4.588;2023-07-20T03:33:27;18.00;75.70
26909;DHT22;14477;51.038;4.588;2023-07-20T03:35:53;18.00;76.00
26909;DHT22;14477;51.038;4.588;2023-07-20T03:38:19;18.00;76.80
26909;DHT22;14477;51.038;4.588;2023-07-20T03:40:59;18.00;76.00
26909;DHT22;14477;51.038;4.588;2023-07-20T03:43:27;18.00;78.10
26909;DHT22;14477;51.038;4.588;2023-07-20T03:45:53;18.00;76.20
26909;DHT22;14477;51.038;4.588;2023-07-20T03:48:23;18.10;76.20
26909;DHT22;14477;51.038;4.588;2023-07-20T03:50:50;18.10;76.20
26909;DHT22;14477;51.038;4.588;2023-07-20T03:53:17;18.10;76.30
26909;DHT22;14477;51.038;4.588;2023-07-20T03:55:49;18.10;76.20
26909;DHT22;14477;51.038;4.588;2023-07-20T03:58:15;18.10;76.70
26909;DHT22;14477;51.038;4.588;2023-07-20T04:00:46;18.10;76.30
26909;DHT22;14477;51.038;4.588;2023-07-20T04:03:12;18.10;76.70
26909;DHT22;14477;51.038;4.588;2023-07-20T04:05:38;18.10;76.30
26909;DHT22;14477;51.038;4.588;2023-07-20T04:08:04;18.10;76.40
26909;DHT22;14477;51.038;4.588;2023-07-20T04:10:30;18.20;76.50
26909;DHT22;14477;51.038;4.588;2023-07-20T04:12:55;18.10;76.50
26909;DHT22;14477;51.038;4.588;2023-07-20T04:15:21;18.20;76.60
26909;DHT22;14477;51.038;4.588;2023-07-20T04:17:47;18.20;76.70
26909;DHT22;14477;51.038;4.588;2023-07-20T04:20:13;18.20;76.80
26909;DHT22;14477;51.038;4.588;2023-07-20T04:22:38;18.20;76.80
26909;DHT22;14477;51.038;4.588;2023-07-20T04:25:04;18.20;76.80
26909;DHT22;14477;51.038;4.588;2023-07-20T04:27:30;18.20;77.00
26909;DHT22;14477;51.038;4.588;2023-07-20T04:29:58;18.30;77.20
26909;DHT22;14477;51.038;4.588;2023-07-20T04:32:25;18.30;77.50
26909;DHT22;14477;51.038;4.588;2023-07-20T04:34:51;18.30;77.30
26909;DHT22;14477;51.038;4.588;2023-07-20T04:37:17;18.30;77.30
26909;DHT22;14477;51.038;4.588;2023-07-20T04:39:43;18.40;77.40
26909;DHT22;14477;51.038;4.588;2023-07-20T04:42:08;18.40;77.40
26909;DHT22;14477;51.038;4.588;2023-07-20T04:44:34;18.40;77.40
26909;DHT22;14477;51.038;4.588;2023-07-20T04:47:00;18.40;77.50
26909;DHT22;14477;51.038;4.588;2023-07-20T04:49:25;18.50;77.60
26909;DHT22;14477;51.038;4.588;2023-07-20T04:51:52;18.50;77.60
26909;DHT22;14477;51.038;4.588;2023-07-20T04:54:17;18.50;77.60
26909;DHT22;14477;51.038;4.588;2023-07-20T04:56:44;18.60;77.60
26909;DHT22;14477;51.038;4.588;2023-07-20T04:59:10;18.60;77.70
26909;DHT22;14477;51.038;4.588;2023-07-20T05:01:36;18.60;77.80
26909;DHT22;14477;51.038;4.588;2023-07-20T05:04:02;18.70;77.90
26909;DHT22;14477;51.038;4.588;2023-07-20T05:06:27;18.70;78.00
26909;DHT22;14477;51.038;4.588;2023-07-20T05:08:53;18.70;78.20
26909;DHT22;14477;51.038;4.588;2023-07-20T05:11:19;18.80;78.30
26909;DHT22;14477;51.038;4.588;2023-07-20T05:13:45;18.80;78.40
26909;DHT22;14477;51.038;4.588;2023-07-20T05:16:11;18.80;78.40
26909;DHT22;14477;51.038;4.588;2023-07-20T05:18:37;18.90;78.50
26909;DHT22;14477;51.038;4.588;2023-07-20T05:21:02;18.90;78.50
26909;DHT22;14477;51.038;4.588;2023-07-20T05:23:28;19.00;78.60
26909;DHT22;14477;51.038;4.588;2023-07-20T05:25:55;19.00;78.60
26909;DHT22;14477;51.038;4.588;2023-07-20T05:28:22;19.10;78.70
26909;DHT22;14477;51.038;4.588;2023-07-20T05:30:48;19.10;78.70
26909;DHT22;14477;51.038;4.588;2023-07-20T05:33:14;19.20;78.80
26909;DHT22;14477;51.038;4.588;2023-07-20T05:35:40;19.20;78.80
26909;DHT22;14477;51.038;4.588;2023-07-20T05:38:05;19.30;78.90
26909;DHT22;14477;51.038;4.588;2023-07-20T05:40:32;19.30;78.80
26909;DHT22;14477;51.038;4.588;2023-07-20T05:42:57;19.40;79.00
26909;DHT22;14477;51.038;4.588;2023-07-20T05:45:24;19.50;79.00
26909;DHT22;14477;51.038;4.588;2023-07-20T05:47:50;19.50;79.00
26909;DHT22;14477;51.038;4.588;2023-07-20T05:50:16;19.60;79.10
26909;DHT22;14477;51.038;4.588;2023-07-20T05:52:41;19.60;79.10
26909;DHT22;14477;51.038;4.588;2023-07-20T05:55:07;19.70;79.00
26909;DHT22;14477;51.038;4.588;2023-07-20T05:57:33;19.70;79.80
26909;DHT22;14477;51.038;4.588;2023-07-20T05:59:59;19.80;79.00
26909;DHT22;14477;51.038;4.588;2023-07-20T06:02:25;19.80;79.00
26909;DHT22;14477;51.038;4.588;2023-07-20T06:04:50;19.90;79.00
26909;DHT22;14477;51.038;4.588;2023-07-20T06:07:16;20.00;78.90
26909;DHT22;14477;51.038;4.588;2023-07-20T06:09:42;20.00;78.80
26909;DHT22;14477;51.038;4.588;2023-07-20T06:12:08;20.00;78.80
26909;DHT22;14477;51.038;4.588;2023-07-20T06:14:34;20.10;78.90
26909;DHT22;14477;51.038;4.588;2023-07-20T06:17:00;20.10;78.90
26909;DHT22;14477;51.038;4.588;2023-07-20T06:19:26;20.20;79.10
26909;DHT22;14477;51.038;4.588;2023-07-20T06:21:52;20.30;79.50
26909;DHT22;14477;51.038;4.588;2023-07-20T06:24:18;20.40;79.60
26909;DHT22;14477;51.038;4.588;2023-07-20T06:26:44;20.50;79.70
26909;DHT22;14477;51.038;4.588;2023-07-20T06:29:09;20.60;79.50
26909;DHT22;14477;51.038;4.588;2023-07-20T06:31:36;20.70;79.30
26909;DHT22;14477;51.038;4.588;2023-07-20T06:34:02;20.80;79.10
26909;DHT22;14477;51.038;4.588;2023-07-20T06:36:28;20.90;79.00
26909;DHT22;14477;51.038;4.588;2023-07-20T06:38:55;20.90;78.60
26909;DHT22;14477;51.038;4.588;2023-07-20T06:41:20;20.90;78.30
26909;DHT22;14477;51.038;4.588;2023-07-20T06:43:46;20.90;78.10
26909;DHT22;14477;51.038;4.588;2023-07-20T06:46:12;21.00;78.10
26909;DHT22;14477;51.038;4.588;2023-07-20T06:48:38;21.00;78.00
26909;DHT22;14477;51.038;4.588;2023-07-20T06:51:04;21.00;77.90
26909;DHT22;14477;51.038;4.588;2023-07-20T06:53:30;21.10;78.00
26909;DHT22;14477;51.038;4.588;2023-07-20T06:55:56;21.10;78.30
26909;DHT22;14477;51.038;4.588;2023-07-20T06:58:24;21.10;78.60
26909;DHT22;14477;51.038;4.588;2023-07-20T07:00:50;21.20;79.40
26909;DHT22;14477;51.038;4.588;2023-07-20T07:03:16;21.30;78.80
26909;DHT22;14477;51.038;4.588;2023-07-20T07:05:43;21.40;78.70
26909;DHT22;14477;51.038;4.588;2023-07-20T07:08:10;21.60;78.70
26909;DHT22;14477;51.038;4.588;2023-07-20T07:10:36;21.60;78.50
26909;DHT22;14477;51.038;4.588;2023-07-20T07:13:02;21.70;78.20
26909;DHT22;14477;51.038;4.588;2023-07-20T07:15:29;21.80;77.90
26909;DHT22;14477;51.038;4.588;2023-07-20T07:17:54;21.90;77.60
26909;DHT22;14477;51.038;4.588;2023-07-20T07:20:21;21.90;77.40
26909;DHT22;14477;51.038;4.588;2023-07-20T07:22:47;22.00;77.20
26909;DHT22;14477;51.038;4.588;2023-07-20T07:25:13;22.00;77.00
26909;DHT22;14477;51.038;4.588;2023-07-20T07:27:39;22.10;76.90
26909;DHT22;14477;51.038;4.588;2023-07-20T07:30:06;22.10;76.90
26909;DHT22;14477;51.038;4.588;2023-07-20T07:32:32;22.20;77.00
26909;DHT22;14477;51.038;4.588;2023-07-20T07:34:57;22.20;76.70
26909;DHT22;14477;51.038;4.588;2023-07-20T07:37:26;22.30;76.50
26909;DHT22;14477;51.038;4.588;2023-07-20T07:39:52;22.40;76.50
26909;DHT22;14477;51.038;4.588;2023-07-20T07:42:17;22.40;76.30
26909;DHT22;14477;51.038;4.588;2023-07-20T07:44:44;22.50;76.20
26909;DHT22;14477;51.038;4.588;2023-07-20T07:47:10;22.50;76.00
26909;DHT22;14477;51.038;4.588;2023-07-20T07:49:36;22.60;75.90
26909;DHT22;14477;51.038;4.588;2023-07-20T07:52:02;22.60;75.90
26909;DHT22;14477;51.038;4.588;2023-07-20T07:54:28;22.60;75.70
26909;DHT22;14477;51.038;4.588;2023-07-20T07:56:54;22.70;75.70
26909;DHT22;14477;51.038;4.588;2023-07-20T07:59:20;22.70;75.60
26909;DHT22;14477;51.038;4.588;2023-07-20T08:01:46;22.80;75.60
26909;DHT22;14477;51.038;4.588;2023-07-20T08:04:12;22.90;75.60
26909;DHT22;14477;51.038;4.588;2023-07-20T08:06:38;23.00;75.30
26909;DHT22;14477;51.038;4.588;2023-07-20T08:09:04;23.00;75.10
26909;DHT22;14477;51.038;4.588;2023-07-20T08:11:30;23.10;74.80
26909;DHT22;14477;51.038;4.588;2023-07-20T08:13:59;23.10;74.50
26909;DHT22;14477;51.038;4.588;2023-07-20T08:16:25;23.10;74.50
26909;DHT22;14477;51.038;4.588;2023-07-20T08:18:51;23.20;75.30
26909;DHT22;14477;51.038;4.588;2023-07-20T08:21:16;23.40;76.20
26909;DHT22;14477;51.038;4.588;2023-07-20T08:23:42;23.60;76.40
26909;DHT22;14477;51.038;4.588;2023-07-20T08:26:08;23.80;77.00
26909;DHT22;14477;51.038;4.588;2023-07-20T08:28:34;24.10;77.40
26909;DHT22;14477;51.038;4.588;2023-07-20T08:31:00;24.50;78.20
26909;DHT22;14477;51.038;4.588;2023-07-20T08:33:26;25.00;78.40
26909;DHT22;14477;51.038;4.588;2023-07-20T08:35:55;25.40;79.00
26909;DHT22;14477;51.038;4.588;2023-07-20T08:38:22;26.00;79.50
26909;DHT22;14477;51.038;4.588;2023-07-20T08:40:47;26.60;79.50
26909;DHT22;14477;51.038;4.588;2023-07-20T08:43:14;27.20;78.20
26909;DHT22;14477;51.038;4.588;2023-07-20T08:45:42;27.80;76.80
26909;DHT22;14477;51.038;4.588;2023-07-20T08:48:12;28.30;75.10
26909;DHT22;14477;51.038;4.588;2023-07-20T08:50:38;28.70;72.70
26909;DHT22;14477;51.038;4.588;2023-07-20T08:53:04;29.00;71.90
26909;DHT22;14477;51.038;4.588;2023-07-20T08:55:30;29.10;69.50
26909;DHT22;14477;51.038;4.588;2023-07-20T08:58:00;29.20;67.80
26909;DHT22;14477;51.038;4.588;2023-07-20T09:00:28;29.10;65.20
26909;DHT22;14477;51.038;4.588;2023-07-20T09:02:57;28.90;65.40
26909;DHT22;14477;51.038;4.588;2023-07-20T09:05:25;28.80;64.80
26909;DHT22;14477;51.038;4.588;2023-07-20T09:07:52;28.60;64.00
26909;DHT22;14477;51.038;4.588;2023-07-20T09:10:23;28.30;63.50
26909;DHT22;14477;51.038;4.588;2023-07-20T09:12:50;28.20;64.10
26909;DHT22;14477;51.038;4.588;2023-07-20T09:15:16;28.20;66.10
26909;DHT22;14477;51.038;4.588;2023-07-20T09:17:49;28.40;67.30
26909;DHT22;14477;51.038;4.588;2023-07-20T09:20:18;28.60;66.20
26909;DHT22;14477;51.038;4.588;2023-07-20T09:22:45;29.00;66.50
26909;DHT22;14477;51.038;4.588;2023-07-20T09:25:18;29.30;66.90
26909;DHT22;14477;51.038;4.588;2023-07-20T09:27:46;29.60;65.70
26909;DHT22;14477;51.038;4.588;2023-07-20T09:30:14;30.00;66.20
26909;DHT22;14477;51.038;4.588;2023-07-20T09:32:45;30.30;65.90
26909;DHT22;14477;51.038;4.588;2023-07-20T09:35:15;30.70;64.40
26909;DHT22;14477;51.038;4.588;2023-07-20T09:37:58;31.00;63.70
26909;DHT22;14477;51.038;4.588;2023-07-20T09:40:25;31.30;63.10
26909;DHT22;14477;51.038;4.588;2023-07-20T09:42:53;31.60;63.60
26909;DHT22;14477;51.038;4.588;2023-07-20T09:45:34;31.90;62.10
26909;DHT22;14477;51.038;4.588;2023-07-20T09:48:08;32.10;60.80
26909;DHT22;14477;51.038;4.588;2023-07-20T09:50:39;32.30;60.10
26909;DHT22;14477;51.038;4.588;2023-07-20T09:53:07;32.40;59.40
26909;DHT22;14477;51.038;4.588;2023-07-20T09:55:34;32.40;57.50
26909;DHT22;14477;51.038;4.588;2023-07-20T09:58:00;32.20;55.90
26909;DHT22;14477;51.038;4.588;2023-07-20T10:00:26;31.90;55.20
26909;DHT22;14477;51.038;4.588;2023-07-20T10:02:52;31.70;55.50
26909;DHT22;14477;51.038;4.588;2023-07-20T10:05:19;31.40;55.70
26909;DHT22;14477;51.038;4.588;2023-07-20T10:07:50;31.20;55.50
26909;DHT22;14477;51.038;4.588;2023-07-20T10:10:18;31.10;54.90
26909;DHT22;14477;51.038;4.588;2023-07-20T10:12:48;31.10;56.10
26909;DHT22;14477;51.038;4.588;2023-07-20T10:15:28;31.10;55.90
26909;DHT22;14477;51.038;4.588;2023-07-20T10:18:07;31.30;55.00
26909;DHT22;14477;51.038;4.588;2023-07-20T10:20:37;31.40;56.50
26909;DHT22;14477;51.038;4.588;2023-07-20T10:23:05;31.70;57.30
26909;DHT22;14477;51.038;4.588;2023-07-20T10:25:31;31.90;56.70
26909;DHT22;14477;51.038;4.588;2023-07-20T10:27:59;32.10;56.10
26909;DHT22;14477;51.038;4.588;2023-07-20T10:30:25;32.30;55.00
26909;DHT22;14477;51.038;4.588;2023-07-20T10:32:52;32.50;54.90
26909;DHT22;14477;51.038;4.588;2023-07-20T10:35:18;32.60;54.00
26909;DHT22;14477;51.038;4.588;2023-07-20T10:37:55;32.70;53.20
26909;DHT22;14477;51.038;4.588;2023-07-20T10:40:26;32.70;51.10
26909;DHT22;14477;51.038;4.588;2023-07-20T10:43:00;32.60;51.80
26909;DHT22;14477;51.038;4.588;2023-07-20T10:45:57;32.40;50.30
26909;DHT22;14477;51.038;4.588;2023-07-20T10:48:25;32.20;49.60
26909;DHT22;14477;51.038;4.588;2023-07-20T10:51:22;32.10;50.30
26909;DHT22;14477;51.038;4.588;2023-07-20T10:53:49;31.90;49.50
26909;DHT22;14477;51.038;4.588;2023-07-20T10:56:21;31.60;50.40
26909;DHT22;14477;51.038;4.588;2023-07-20T10:58:48;31.40;49.70
26909;DHT22;14477;51.038;4.588;2023-07-20T11:01:17;31.30;50.50
26909;DHT22;14477;51.038;4.588;2023-07-20T11:03:48;31.10;50.60
26909;DHT22;14477;51.038;4.588;2023-07-20T11:11:34;30.70;49.90
26909;DHT22;14477;51.038;4.588;2023-07-20T11:14:08;30.60;50.40
26909;DHT22;14477;51.038;4.588;2023-07-20T11:16:39;30.60;50.00
26909;DHT22;14477;51.038;4.588;2023-07-20T11:19:16;30.60;50.70
26909;DHT22;14477;51.038;4.588;2023-07-20T11:21:43;30.60;51.20
26909;DHT22;14477;51.038;4.588;2023-07-20T11:24:09;30.60;51.20
26909;DHT22;14477;51.038;4.588;2023-07-20T11:26:44;30.70;51.40
26909;DHT22;14477;51.038;4.588;2023-07-20T11:29:11;30.80;50.40
26909;DHT22;14477;51.038;4.588;2023-07-20T11:31:42;30.90;52.20
26909;DHT22;14477;51.038;4.588;2023-07-20T11:34:11;31.20;51.60
26909;DHT22;14477;51.038;4.588;2023-07-20T11:36:42;31.50;51.30
26909;DHT22;14477;51.038;4.588;2023-07-20T11:39:09;31.70;51.10
26909;DHT22;14477;51.038;4.588;2023-07-20T11:41:35;31.80;50.70
26909;DHT22;14477;51.038;4.588;2023-07-20T11:44:01;32.00;50.80
26909;DHT22;14477;51.038;4.588;2023-07-20T11:46:28;32.10;50.30
26909;DHT22;14477;51.038;4.588;2023-07-20T11:49:01;32.20;49.90
26909;DHT22;14477;51.038;4.588;2023-07-20T11:51:31;32.30;48.80
26909;DHT22;14477;51.038;4.588;2023-07-20T11:53:57;32.40;49.30
26909;DHT22;14477;51.038;4.588;2023-07-20T11:56:24;32.50;50.10
26909;DHT22;14477;51.038;4.588;2023-07-20T11:58:50;32.70;49.40
26909;DHT22;14477;51.038;4.588;2023-07-20T12:01:19;32.70;48.50
26909;DHT22;14477;51.038;4.588;2023-07-20T12:03:48;32.70;47.90
26909;DHT22;14477;51.038;4.588;2023-07-20T12:06:13;32.70;47.00
26909;DHT22;14477;51.038;4.588;2023-07-20T12:08:43;32.40;46.50
26909;DHT22;14477;51.038;4.588;2023-07-20T12:11:10;32.20;46.00
26909;DHT22;14477;51.038;4.588;2023-07-20T12:13:43;32.00;46.50
26909;DHT22;14477;51.038;4.588;2023-07-20T12:16:13;31.90;46.30
26909;DHT22;14477;51.038;4.588;2023-07-20T12:18:43;31.90;48.10
26909;DHT22;14477;51.038;4.588;2023-07-20T12:21:10;32.00;48.80
26909;DHT22;14477;51.038;4.588;2023-07-20T12:23:40;32.30;49.10
26909;DHT22;14477;51.038;4.588;2023-07-20T12:26:07;32.60;48.50
26909;DHT22;14477;51.038;4.588;2023-07-20T12:28:39;32.90;49.30
26909;DHT22;14477;51.038;4.588;2023-07-20T12:31:06;33.30;48.70
26909;DHT22;14477;51.038;4.588;2023-07-20T12:33:32;33.50;48.00
26909;DHT22;14477;51.038;4.588;2023-07-20T12:35:58;33.60;47.00
26909;DHT22;14477;51.038;4.588;2023-07-20T12:38:25;33.70;46.20
26909;DHT22;14477;51.038;4.588;2023-07-20T12:40:53;33.70;45.50
26909;DHT22;14477;51.038;4.588;2023-07-20T12:43:20;33.60;45.00
26909;DHT22;14477;51.038;4.588;2023-07-20T12:45:46;33.40;44.60
26909;DHT22;14477;51.038;4.588;2023-07-20T12:48:12;33.20;44.10
26909;DHT22;14477;51.038;4.588;2023-07-20T12:50:38;33.00;43.90
26909;DHT22;14477;51.038;4.588;2023-07-20T12:53:04;32.70;43.60
26909;DHT22;14477;51.038;4.588;2023-07-20T12:55:30;32.50;43.40
26909;DHT22;14477;51.038;4.588;2023-07-20T12:57:55;32.20;43.40
26909;DHT22;14477;51.038;4.588;2023-07-20T13:00:21;31.90;43.60
26909;DHT22;14477;51.038;4.588;2023-07-20T13:02:50;31.60;43.80
26909;DHT22;14477;51.038;4.588;2023-07-20T13:05:16;31.30;43.90
26909;DHT22;14477;51.038;4.588;2023-07-20T13:07:42;30.90;44.00
26909;DHT22;14477;51.038;4.588;2023-07-20T13:10:09;30.70;44.30
26909;DHT22;14477;51.038;4.588;2023-07-20T13:12:36;30.40;44.60
26909;DHT22;14477;51.038;4.588;2023-07-20T13:15:03;30.10;44.70
26909;DHT22;14477;51.038;4.588;2023-07-20T13:17:32;30.00;45.00
26909;DHT22;14477;51.038;4.588;2023-07-20T13:19:58;29.80;45.20
26909;DHT22;14477;51.038;4.588;2023-07-20T13:22:23;29.60;45.40
26909;DHT22;14477;51.038;4.588;2023-07-20T13:24:49;29.50;45.70
26909;DHT22;14477;51.038;4.588;2023-07-20T13:27:18;29.40;46.00
26909;DHT22;14477;51.038;4.588;2023-07-20T13:29:45;29.20;46.80
26909;DHT22;14477;51.038;4.588;2023-07-20T13:32:13;29.10;46.10
26909;DHT22;14477;51.038;4.588;2023-07-20T13:34:40;29.10;46.20
26909;DHT22;14477;51.038;4.588;2023-07-20T13:37:06;29.00;47.00
26909;DHT22;14477;51.038;4.588;2023-07-20T13:39:32;28.90;46.80
26909;DHT22;14477;51.038;4.588;2023-07-20T13:41:58;28.80;46.70
26909;DHT22;14477;51.038;4.588;2023-07-20T13:44:23;28.70;46.70
26909;DHT22;14477;51.038;4.588;2023-07-20T13:46:50;28.60;47.00
26909;DHT22;14477;51.038;4.588;2023-07-20T13:49:16;28.50;47.00
26909;DHT22;14477;51.038;4.588;2023-07-20T13:51:42;28.50;47.20
26909;DHT22;14477;51.038;4.588;2023-07-20T13:54:08;28.40;48.30
26909;DHT22;14477;51.038;4.588;2023-07-20T13:56:34;28.30;47.50
26909;DHT22;14477;51.038;4.588;2023-07-20T13:58:59;28.30;47.80
26909;DHT22;14477;51.038;4.588;2023-07-20T14:01:26;28.20;47.80
26909;DHT22;14477;51.038;4.588;2023-07-20T14:03:56;28.20;47.80
26909;DHT22;14477;51.038;4.588;2023-07-20T14:06:22;28.10;47.70
26909;DHT22;14477;51.038;4.588;2023-07-20T14:08:48;28.00;47.70
26909;DHT22;14477;51.038;4.588;2023-07-20T14:11:15;28.00;47.80
26909;DHT22;14477;51.038;4.588;2023-07-20T14:13:41;27.90;47.70
26909;DHT22;14477;51.038;4.588;2023-07-20T14:16:07;27.80;48.00
26909;DHT22;14477;51.038;4.588;2023-07-20T14:18:33;27.80;48.30
26909;DHT22;14477;51.038;4.588;2023-07-20T14:20:59;27.70;48.40
26909;DHT22;14477;51.038;4.588;2023-07-20T14:23:25;27.60;48.50
26909;DHT22;14477;51.038;4.588;2023-07-20T14:25:51;27.60;48.80
26909;DHT22;14477;51.038;4.588;2023-07-20T14:28:17;27.50;49.10
26909;DHT22;14477;51.038;4.588;2023-07-20T14:30:42;27.50;49.20
26909;DHT22;14477;51.038;4.588;2023-07-20T14:33:08;27.50;49.30
26909;DHT22;14477;51.038;4.588;2023-07-20T14:35:34;27.40;49.40
26909;DHT22;14477;51.038;4.588;2023-07-20T14:38:00;27.40;49.70
26909;DHT22;14477;51.038;4.588;2023-07-20T14:40:27;27.40;49.80
26909;DHT22;14477;51.038;4.588;2023-07-20T14:42:52;27.50;50.00
26909;DHT22;14477;51.038;4.588;2023-07-20T14:45:18;27.50;50.20
26909;DHT22;14477;51.038;4.588;2023-07-20T14:47:44;27.50;50.10
26909;DHT22;14477;51.038;4.588;2023-07-20T14:50:11;27.60;50.20
26909;DHT22;14477;51.038;4.588;2023-07-20T14:52:37;27.60;50.30
26909;DHT22;14477;51.038;4.588;2023-07-20T14:55:03;27.70;50.60
26909;DHT22;14477;51.038;4.588;2023-07-20T14:57:29;27.80;50.60
26909;DHT22;14477;51.038;4.588;2023-07-20T14:59:54;27.90;50.60
26909;DHT22;14477;51.038;4.588;2023-07-20T15:02:20;28.00;50.60
26909;DHT22;14477;51.038;4.588;2023-07-20T15:04:50;28.10;50.60
26909;DHT22;14477;51.038;4.588;2023-07-20T15:07:20;28.20;50.30
26909;DHT22;14477;51.038;4.588;2023-07-20T15:09:49;28.30;50.10
26909;DHT22;14477;51.038;4.588;2023-07-20T15:12:15;28.40;50.20
26909;DHT22;14477;51.038;4.588;2023-07-20T15:14:42;28.40;50.00
26909;DHT22;14477;51.038;4.588;2023-07-20T15:17:11;28.40;50.00
26909;DHT22;14477;51.038;4.588;2023-07-20T15:19:37;28.30;49.80
26909;DHT22;14477;51.038;4.588;2023-07-20T15:22:03;28.40;50.00
26909;DHT22;14477;51.038;4.588;2023-07-20T15:24:30;28.40;49.90
26909;DHT22;14477;51.038;4.588;2023-07-20T15:26:55;28.30;49.50
26909;DHT22;14477;51.038;4.588;2023-07-20T15:29:23;28.30;49.50
26909;DHT22;14477;51.038;4.588;2023-07-20T15:31:48;28.30;49.40
26909;DHT22;14477;51.038;4.588;2023-07-20T15:34:14;28.20;49.50
26909;DHT22;14477;51.038;4.588;2023-07-20T15:36:41;28.10;49.40
26909;DHT22;14477;51.038;4.588;2023-07-20T15:39:08;28.00;49.40
26909;DHT22;14477;51.038;4.588;2023-07-20T15:41:33;27.90;49.30
26909;DHT22;14477;51.038;4.588;2023-07-20T15:44:00;27.80;49.50